Time;durP1;ratioP1;P1;durP2;ratioP2;P2;SDS_P1;SDS_P2;PMS_P1;PMS_P2;Temp;Humidity;BMP_temperature;BMP_pressure;BME280_temperature;BME280_humidity;BME280_pressure;Samples;Min_cycle;Max_cycle;Signal;HPM_P1;HPM_P2
2021/05/28 00:02:18;;;;;;;12.35;3.85;;;12.20;93.80;;;11.21;85.87;101190.13;5055102;28;20049;-78
2021/05/28 00:04:53;;;;;;;9.20;3.35;;;12.20;94.00;;;11.21;86.26;101190.13;5054751;28;20558;-79
2021/05/28 00:07:31;;;;;;;8.55;3.08;;;12.20;94.00;;;11.23;86.23;101188.13;5055151;28;20071;-78
2021/05/28 00:10:10;;;;;;;11.02;3.55;;;12.20;94.10;;;11.22;86.06;101194.56;5054178;28;20791;-78
2021/05/28 00:12:46;;;;;;;7.18;2.88;;;12.20;94.20;;;11.24;86.33;101200.69;5054951;28;20040;-78
2021/05/28 00:15:22;;;;;;;11.38;3.17;;;12.20;94.20;;;11.24;86.38;101206.16;5054836;28;20563;-78
2021/05/28 00:18:00;;;;;;;9.52;3.22;;;12.20;94.30;;;11.26;86.43;101192.38;5054928;28;20476;-78
2021/05/28 00:20:35;;;;;;;9.77;3.38;;;12.20;94.50;;;11.27;86.73;101194.91;5054605;28;20044;-78
2021/05/28 00:23:16;;;;;;;9.77;3.20;;;12.20;94.50;;;11.27;86.84;101199.50;5051850;28;20802;-78
2021/05/28 00:25:54;;;;;;;9.65;3.28;;;12.20;94.60;;;11.26;86.50;101204.09;5051793;28;20048;-78
2021/05/28 00:28:32;;;;;;;11.52;2.80;;;12.20;94.60;;;11.25;86.63;101196.97;5051444;28;20048;-78
2021/05/28 00:31:08;;;;;;;10.40;3.25;;;12.20;94.50;;;11.24;86.17;101200.69;5050322;28;20044;-78
2021/05/28 00:33:46;;;;;;;9.48;3.50;;;12.20;94.20;;;11.22;85.73;101202.75;5051090;28;20045;-78
2021/05/28 00:36:25;;;;;;;7.80;3.38;;;12.20;94.00;;;11.21;85.75;101202.91;5051447;28;20060;-78
2021/05/28 00:39:03;;;;;;;9.82;3.30;;;12.20;93.80;;;11.19;85.74;101199.50;5051172;28;20117;-78
2021/05/28 00:41:39;;;;;;;14.50;3.78;;;12.10;93.90;;;11.17;85.83;101202.41;5051191;28;20045;-78
2021/05/28 00:44:17;;;;;;;8.23;3.15;;;12.10;93.90;;;11.14;85.78;101200.88;5051242;28;20103;-78
2021/05/28 00:46:50;;;;;;;8.00;3.25;;;12.10;93.90;;;11.12;85.81;101207.53;5051254;28;20519;-78
2021/05/28 00:49:28;;;;;;;7.70;2.92;;;12.10;93.90;;;11.09;85.71;101207.88;5051141;28;20041;-78
2021/05/28 00:52:03;;;;;;;9.93;3.20;;;12.10;93.80;;;11.11;85.66;101205.81;5051152;28;20066;-78
2021/05/28 00:54:38;;;;;;;11.13;4.28;;;12.00;93.70;;;11.08;85.46;101206.16;5051002;28;20049;-78
2021/05/28 00:57:14;;;;;;;9.10;3.78;;;12.00;93.80;;;11.08;85.51;101207.03;5051160;28;20045;-78
2021/05/28 00:59:56;;;;;;;8.85;3.15;;;12.00;93.70;;;11.05;85.51;101218.25;5050190;28;20048;-78
2021/05/28 01:02:35;;;;;;;11.40;3.60;;;12.00;93.70;;;11.03;85.74;101217.56;5051051;28;20175;-78
2021/05/28 01:05:14;;;;;;;9.50;3.80;;;12.00;93.70;;;11.01;85.43;101216.06;5050858;28;20045;-78
2021/05/28 01:07:52;;;;;;;11.55;3.42;;;12.00;93.50;;;10.94;85.02;101213.97;5050879;28;20049;-78
2021/05/28 01:10:28;;;;;;;6.38;3.28;;;11.90;93.50;;;10.94;85.50;101222.16;5050494;28;20048;-78
2021/05/28 01:13:09;;;;;;;10.07;3.45;;;11.90;93.50;;;10.93;85.27;101225.06;5050233;28;20044;-78
2021/05/28 01:15:47;;;;;;;9.32;3.38;;;11.90;93.50;;;10.92;85.47;101226.91;5050773;28;20048;-78
2021/05/28 01:18:30;;;;;;;10.98;4.28;;;11.90;93.50;;;10.91;85.22;101236.13;5050613;28;20045;-78
2021/05/28 01:21:08;;;;;;;7.35;3.45;;;11.90;93.50;;;10.91;85.17;101230.69;5050345;28;20048;-78
2021/05/28 01:23:47;;;;;;;10.40;4.43;;;11.80;93.40;;;10.91;85.17;101230.69;5050560;28;20072;-78
2021/05/28 01:26:25;;;;;;;10.20;4.18;;;11.80;93.40;;;10.90;85.23;101231.69;5050599;28;20063;-78
2021/05/28 01:29:01;;;;;;;8.55;3.58;;;11.80;93.40;;;10.87;85.06;101232.03;5050034;28;20049;-78
2021/05/28 01:31:39;;;;;;;7.45;3.67;;;11.80;93.30;;;10.84;85.09;101232.38;5049427;28;20040;-78
2021/05/28 01:34:17;;;;;;;12.57;3.67;;;11.70;93.30;;;10.84;84.76;101229.66;5048923;28;20131;-78
2021/05/28 01:36:49;;;;;;;12.80;4.38;;;11.80;93.20;;;10.86;84.73;101234.94;5049887;28;20098;-78
2021/05/28 01:39:28;;;;;;;9.00;4.57;;;11.70;93.20;;;10.84;84.51;101236.97;5049763;28;20536;-78
2021/05/28 01:42:07;;;;;;;11.85;3.72;;;11.70;93.20;;;10.83;84.44;101235.25;5049881;28;20491;-78
2021/05/28 01:44:45;;;;;;;10.23;4.03;;;11.70;93.20;;;10.84;84.53;101231.53;5031789;28;20464;-78
2021/05/28 01:47:20;;;;;;;10.73;4.30;;;11.70;93.20;;;10.80;84.06;101233.72;5049505;28;20052;-78
2021/05/28 01:49:52;;;;;;;12.63;4.28;;;11.70;93.10;;;10.76;84.41;101229.66;5048664;28;20041;-78
2021/05/28 01:52:32;;;;;;;12.25;4.38;;;11.70;93.10;;;10.76;84.45;101229.66;5049785;28;20048;-78
2021/05/28 01:55:16;;;;;;;11.15;4.60;;;11.80;93.20;;;10.73;84.46;101232.69;5049770;28;20044;-78
2021/05/28 01:57:51;;;;;;;13.50;4.45;;;11.70;93.30;;;10.72;84.53;101229.13;5049788;28;20056;-78
2021/05/28 02:00:27;;;;;;;14.13;4.68;;;11.60;93.20;;;10.72;84.54;101220.13;5049446;28;20045;-78
2021/05/28 02:03:05;;;;;;;13.82;4.57;;;11.60;93.20;;;10.69;84.33;101218.56;5049623;28;20049;-77
2021/05/28 02:05:43;;;;;;;8.90;3.65;;;11.60;93.00;;;10.65;84.05;101227.25;5049486;28;20076;-78
2021/05/28 02:08:21;;;;;;;9.45;4.07;;;11.50;92.80;;;10.63;84.23;101227.41;5049581;28;20082;-78
2021/05/28 02:11:02;;;;;;;12.48;4.32;;;11.50;92.80;;;10.61;84.04;101220.44;5031093;28;20045;-78
2021/05/28 02:13:42;;;;;;;11.48;4.40;;;11.50;92.50;;;10.57;83.43;101228.94;5049455;28;20094;-78
2021/05/28 02:16:21;;;;;;;10.07;4.22;;;11.40;92.40;;;10.54;83.45;101223.81;5049314;28;20040;-78
2021/05/28 02:18:54;;;;;;;14.18;4.60;;;11.40;92.20;;;10.50;83.17;101219.72;5049184;28;20055;-78
2021/05/28 02:21:30;;;;;;;13.43;4.07;;;11.40;92.10;;;10.45;83.16;101224.84;5048923;28;20102;-78
2021/05/28 02:24:12;;;;;;;13.13;4.97;;;11.30;91.90;;;10.42;82.74;101224.31;5049187;28;20052;-78
2021/05/28 02:26:55;;;;;;;12.15;5.05;;;11.30;91.70;;;10.39;82.83;101228.19;5048990;28;20052;-78
2021/05/28 02:29:34;;;;;;;8.98;4.38;;;11.20;91.40;;;10.33;82.48;101217.97;5048707;28;20097;-78
2021/05/28 02:32:11;;;;;;;8.48;3.90;;;11.20;91.50;;;10.32;82.27;101229.91;5029160;28;20528;-78
2021/05/28 02:34:49;;;;;;;9.23;4.35;;;11.20;91.40;;;10.30;82.25;101230.06;5029189;28;20041;-78
2021/05/28 02:37:29;;;;;;;12.55;4.43;;;11.10;91.40;;;10.28;82.32;101231.19;5029176;28;20056;-78
2021/05/28 02:40:07;;;;;;;12.65;4.70;;;11.10;91.70;;;10.27;82.58;101234.94;5028770;28;20092;-78
2021/05/28 02:42:44;;;;;;;8.27;4.72;;;11.10;91.70;;;10.26;82.40;101238.66;5029100;28;20050;-78
2021/05/28 02:45:21;;;;;;;12.85;4.72;;;11.00;91.40;;;10.21;82.32;101235.59;5028732;28;20041;-78
2021/05/28 02:47:59;;;;;;;9.88;4.82;;;11.00;91.60;;;10.18;82.47;101237.66;5029030;28;20049;-78
2021/05/28 02:50:37;;;;;;;12.10;4.68;;;11.00;91.80;;;10.20;82.64;101239.34;5028533;28;20417;-78
2021/05/28 02:53:16;;;;;;;11.20;4.93;;;11.00;92.00;;;10.18;82.40;101247.66;5028822;28;20053;-78
2021/05/28 02:55:55;;;;;;;11.90;4.53;;;11.00;91.80;;;10.15;82.21;101248.84;5028768;28;20606;-78
2021/05/28 02:58:34;;;;;;;12.07;4.88;;;11.00;91.50;;;10.13;81.94;101250.88;5028602;28;20049;-78
2021/05/28 03:01:12;;;;;;;8.05;4.70;;;10.90;91.30;;;10.09;81.75;101252.22;5042345;28;20045;-78
2021/05/28 03:03:50;;;;;;;7.00;4.03;;;10.90;91.10;;;10.04;81.57;101262.72;5048607;28;20068;-78
2021/05/28 03:06:27;;;;;;;10.38;4.60;;;10.80;90.90;;;10.01;81.25;101262.19;5048619;28;20049;-78
2021/05/28 03:09:06;;;;;;;9.23;4.13;;;10.80;90.70;;;9.96;80.92;101262.69;5048449;28;20041;-78
2021/05/28 03:11:41;;;;;;;9.35;4.60;;;10.70;90.50;;;9.93;81.15;101265.72;5048336;28;20694;-78
2021/05/28 03:14:21;;;;;;;9.02;4.60;;;10.70;90.60;;;9.90;81.08;101257.88;5048546;28;20053;-78
2021/05/28 03:16:59;;;;;;;9.93;4.82;;;10.60;90.60;;;9.87;80.90;101259.06;5048405;28;20056;-78
2021/05/28 03:19:42;;;;;;;13.48;4.93;;;10.60;90.50;;;9.83;80.76;101265.00;5048165;28;20048;-78
2021/05/28 03:22:36;;;;;;;10.60;5.20;;;10.60;90.50;;;9.77;80.80;101264.63;5048392;28;20182;-78
2021/05/28 03:25:17;;;;;;;9.35;5.30;;;10.50;90.40;;;9.76;80.43;101264.78;5048436;28;20045;-78
2021/05/28 03:27:50;;;;;;;9.77;5.47;;;10.50;90.40;;;9.75;80.59;101269.38;5048328;28;20072;-78
2021/05/28 03:30:27;;;;;;;9.32;4.72;;;10.50;90.40;;;9.75;80.37;101271.25;5047446;28;20102;-78
2021/05/28 03:33:05;;;;;;;9.32;5.13;;;10.40;90.30;;;9.71;80.11;101267.13;5048298;28;20044;-78
2021/05/28 03:35:40;;;;;;;8.98;4.88;;;10.40;90.10;;;9.67;80.16;101277.50;5030270;28;20048;-78
2021/05/28 03:38:15;;;;;;;10.98;5.03;;;10.40;90.00;;;9.67;80.12;101276.63;5048276;28;20051;-78
2021/05/28 03:40:54;;;;;;;8.20;4.40;;;10.40;90.10;;;9.62;80.23;101270.81;5048025;28;20080;-78
2021/05/28 03:43:31;;;;;;;9.02;4.97;;;10.30;90.00;;;9.60;80.17;101276.41;5048339;28;20496;-78
2021/05/28 03:46:14;;;;;;;8.27;4.60;;;10.30;90.10;;;9.57;80.17;101279.44;5047844;28;20037;-78
2021/05/28 03:48:52;;;;;;;7.80;4.72;;;10.30;90.10;;;9.54;80.06;101283.34;5063791;22;20032;-83
2021/05/28 03:51:30;;;;;;;8.35;4.85;;;10.30;90.10;;;9.53;80.28;101288.94;5047288;28;20660;-83
2021/05/28 03:54:05;;;;;;;10.15;5.65;;;10.30;90.20;;;9.53;80.26;101297.06;5048213;28;20045;-83
2021/05/28 03:56:43;;;;;;;7.93;4.95;;;10.20;90.00;;;9.52;80.31;101300.78;5048145;28;20041;-83
2021/05/28 03:59:16;;;;;;;8.18;4.75;;;10.20;90.10;;;9.51;80.60;101307.25;5051399;28;20049;-83
2021/05/28 04:01:49;;;;;;;8.60;4.75;;;10.20;90.20;;;9.51;80.22;101309.97;5031737;28;20049;-82
2021/05/28 04:04:25;;;;;;;7.68;4.97;;;10.20;90.20;;;9.53;81.01;101313.38;5036525;28;20045;-81
2021/05/28 04:07:03;;;;;;;11.23;5.10;;;10.20;90.40;;;9.54;80.65;101312.38;5045122;28;20045;-80
2021/05/28 04:09:38;;;;;;;10.32;5.72;;;10.20;90.50;;;9.56;81.19;101313.91;5050953;28;20138;-81
2021/05/28 04:12:13;;;;;;;7.97;4.82;;;10.30;90.70;;;9.54;80.76;101309.66;5051619;28;20049;-81
2021/05/28 04:14:57;;;;;;;7.90;5.00;;;10.20;90.50;;;9.54;81.07;101320.53;5049706;28;20049;-87
2021/05/28 04:17:45;;;;;;;8.88;5.50;;;10.60;91.00;;;9.55;81.15;101311.34;5047700;28;20045;-86
2021/05/28 04:20:21;;;;;;;10.35;5.40;;;10.20;90.70;;;9.56;81.38;101318.50;5051222;28;20045;-87
2021/05/28 04:22:56;;;;;;;10.40;5.90;;;10.30;91.00;;;9.58;81.45;101321.91;5051425;28;20576;-89
2021/05/28 04:25:39;;;;;;;12.27;6.07;;;10.30;91.20;;;9.59;82.21;101312.75;5045939;28;20045;-87
2021/05/28 04:28:15;;;;;;;9.27;6.07;;;10.40;91.50;;;9.67;82.77;101317.38;5050903;28;20045;-86
2021/05/28 04:30:55;;;;;;;9.30;6.00;;;10.50;91.90;;;9.73;83.07;101320.34;5050952;28;20551;-88
2021/05/28 04:33:32;;;;;;;13.53;6.60;;;10.70;92.20;;;9.79;83.32;101324.28;5043384;28;20441;-87
2021/05/28 04:36:15;;;;;;;10.20;6.25;;;10.60;92.40;;;9.81;83.60;101333.13;5051180;28;20049;-87
2021/05/28 04:38:58;;;;;;;11.60;6.80;;;10.60;92.60;;;9.84;84.29;101332.78;5051054;28;20068;-86
2021/05/28 04:41:33;;;;;;;14.05;7.55;;;10.70;93.10;;;9.90;84.51;101331.28;5050853;28;20098;-86
2021/05/28 04:44:09;;;;;;;21.83;8.07;;;10.70;93.50;;;9.92;85.13;101330.16;5051087;28;20081;-87
2021/05/28 04:46:43;;;;;;;20.38;8.85;;;10.80;93.80;;;9.98;85.78;101331.38;5050960;28;20485;-85
2021/05/28 04:49:16;;;;;;;22.75;10.48;;;10.80;94.10;;;10.02;85.80;101329.19;5050830;28;20041;-85
2021/05/28 04:51:56;;;;;;;33.65;13.85;;;10.90;94.40;;;10.06;85.87;101336.84;5050817;28;20037;-92
2021/05/28 04:54:36;;;;;;;40.10;15.20;;;10.90;94.50;;;10.11;86.09;101339.94;5048399;28;20160;-87
2021/05/28 04:57:14;;;;;;;42.85;17.35;;;11.00;94.60;;;10.13;85.98;101337.91;5050607;28;20052;-88
2021/05/28 04:59:58;;;;;;;35.95;16.13;;;11.00;94.70;;;10.16;86.49;101342.16;5050344;28;20041;-86
2021/05/28 05:02:36;;;;;;;39.38;16.80;;;11.00;94.80;;;10.17;86.62;101349.31;5033748;28;20044;-87
2021/05/28 05:05:21;;;;;;;41.03;16.27;;;11.10;94.90;;;10.21;86.75;101352.59;5050784;28;20037;-90
2021/05/28 05:07:56;;;;;;;34.40;15.75;;;11.10;94.90;;;10.20;86.66;101348.13;5050501;28;20037;-89
2021/05/28 05:10:35;;;;;;;30.17;14.90;;;11.20;95.00;;;10.22;86.82;101352.41;5032675;28;20041;-87
2021/05/28 05:13:17;;;;;;;29.48;13.73;;;11.20;94.90;;;10.25;87.16;101351.25;5050611;28;20102;-86
2021/05/28 05:15:52;;;;;;;32.50;14.52;;;11.20;95.00;;;10.29;86.82;101360.78;5050121;28;20099;-86
2021/05/28 05:18:30;;;;;;;33.08;15.60;;;11.20;95.00;;;10.31;86.98;101366.94;5050398;28;20064;-84
2021/05/28 05:21:06;;;;;;;30.25;15.65;;;11.30;95.20;;;10.33;86.85;101375.78;5049882;28;20052;-85
2021/05/28 05:23:49;;;;;;;31.15;16.00;;;11.30;95.20;;;10.36;87.06;101370.88;5050335;28;20045;-84
2021/05/28 05:26:27;;;;;;;34.15;15.93;;;11.30;95.30;;;10.41;87.16;101380.41;5030213;28;20722;-85
2021/05/28 05:29:03;;;;;;;38.88;17.88;;;11.30;95.30;;;10.44;86.96;101378.22;5030323;28;20046;-85
2021/05/28 05:31:41;;;;;;;30.45;14.80;;;11.30;95.30;;;10.46;86.92;101370.75;5043440;28;20077;-85
2021/05/28 05:34:19;;;;;;;38.08;18.70;;;11.30;95.30;;;10.45;86.75;101374.50;5050231;28;20045;-85
2021/05/28 05:37:01;;;;;;;43.72;19.58;;;11.30;95.30;;;10.41;86.78;101373.09;5031781;28;20413;-84
2021/05/28 05:39:40;;;;;;;39.88;18.92;;;11.40;95.30;;;10.43;86.81;101371.06;5046197;28;20140;-85
2021/05/28 05:42:19;;;;;;;44.65;19.73;;;11.40;95.20;;;10.43;86.71;101381.09;5032010;28;20153;-85
2021/05/28 05:44:57;;;;;;;35.92;17.80;;;11.40;95.10;;;10.45;87.10;101379.06;5049672;28;20469;-86
2021/05/28 05:47:35;;;;;;;39.75;18.52;;;11.40;95.30;;;10.48;87.46;101376.03;5049864;28;20409;-84
2021/05/28 05:50:12;;;;;;;40.08;18.67;;;11.40;95.30;;;10.49;87.42;101378.59;5049389;28;20045;-85
2021/05/28 05:52:52;;;;;;;43.85;20.50;;;11.50;95.40;;;10.51;87.20;101378.44;5049784;28;20040;-84
2021/05/28 05:55:28;;;;;;;42.30;20.00;;;11.50;95.40;;;10.50;87.07;101383.00;5048911;28;20052;-84
2021/05/28 05:58:03;;;;;;;41.88;20.45;;;11.50;95.40;;;10.56;87.08;101381.50;5049717;28;20048;-84
2021/05/28 06:00:38;;;;;;;40.88;18.98;;;11.50;95.20;;;10.57;86.85;101385.97;5049369;28;20816;-84
2021/05/28 06:03:15;;;;;;;39.10;19.63;;;11.50;95.20;;;10.58;86.98;101393.09;5048644;28;20045;-84
2021/05/28 06:05:54;;;;;;;40.70;18.48;;;11.50;95.10;;;10.61;87.20;101390.06;5049363;28;20052;-85
2021/05/28 06:08:30;;;;;;;42.03;20.35;;;11.60;95.40;;;10.63;87.36;101388.00;5049459;28;20048;-86
2021/05/28 06:11:03;;;;;;;45.42;21.20;;;11.60;95.40;;;10.67;87.38;101389.38;5049097;28;20041;-84
2021/05/28 06:13:41;;;;;;;41.15;19.98;;;11.60;95.40;;;10.71;87.37;101398.09;5031370;28;20535;-84
2021/05/28 06:16:17;;;;;;;40.35;19.02;;;11.70;95.50;;;10.73;87.46;101393.31;5031319;28;20045;-84
2021/05/28 06:18:54;;;;;;;39.83;17.58;;;11.70;95.50;;;10.76;87.17;101396.56;5048641;28;20056;-84
2021/05/28 06:21:33;;;;;;;38.25;19.02;;;11.70;95.30;;;10.83;87.25;101407.66;5047255;28;20045;-84
2021/05/28 06:24:06;;;;;;;41.75;18.88;;;11.80;95.30;;;10.85;87.16;101402.91;5048592;28;20052;-84
2021/05/28 06:26:36;;;;;;;40.15;20.15;;;11.90;95.30;;;10.86;87.07;101399.16;5049143;28;20053;-84
2021/05/28 06:29:14;;;;;;;38.90;19.35;;;11.90;95.10;;;10.91;87.50;101395.97;5049455;28;20045;-85
2021/05/28 06:31:49;;;;;;;46.08;21.27;;;11.90;95.30;;;10.96;87.81;101405.31;5031062;28;20119;-84
2021/05/28 06:34:25;;;;;;;44.38;20.92;;;12.00;95.60;;;11.02;88.27;101408.41;5049469;28;20051;-83
2021/05/28 06:37:01;;;;;;;41.10;20.55;;;12.00;95.60;;;11.05;88.32;101413.53;5048993;28;20106;-84
2021/05/28 06:39:34;;;;;;;42.33;21.65;;;12.10;95.70;;;11.05;87.89;101414.38;5048550;28;20130;-84
2021/05/28 06:42:01;;;;;;;39.00;19.63;;;12.10;95.50;;;11.07;88.07;101416.94;5049079;28;20076;-84
2021/05/28 06:44:42;;;;;;;48.33;21.77;;;12.10;95.50;;;11.11;88.25;101419.16;5030847;28;20516;-83
2021/05/28 06:47:16;;;;;;;35.08;18.75;;;12.20;95.70;;;11.18;88.35;101413.91;5030862;28;20139;-83
2021/05/28 06:49:57;;;;;;;33.15;17.60;;;12.30;95.90;;;11.27;88.39;101415.63;5048644;28;20124;-83
2021/05/28 06:52:29;;;;;;;32.88;17.20;;;12.40;95.60;;;11.25;87.29;101414.94;5030608;28;20528;-84
2021/05/28 06:55:09;;;;;;;34.40;18.45;;;12.50;94.60;;;11.29;87.27;101408.16;5049022;28;20442;-84
2021/05/28 06:57:44;;;;;;;34.35;16.98;;;12.50;94.30;;;11.39;87.78;101420.78;5049371;28;20044;-84
2021/05/28 07:00:24;;;;;;;35.00;17.77;;;12.60;94.40;;;11.45;87.40;101414.66;5048226;28;20041;-84
2021/05/28 07:03:01;;;;;;;31.33;16.45;;;12.60;94.40;;;11.48;87.40;101417.00;5048587;28;20051;-84
2021/05/28 07:05:45;;;;;;;26.50;15.02;;;12.70;94.30;;;11.53;87.82;101411.91;5048472;28;20045;-84
2021/05/28 07:08:23;;;;;;;34.35;16.75;;;12.80;94.20;;;11.62;87.93;101416.34;5030841;28;20139;-84
2021/05/28 07:11:02;;;;;;;31.67;16.33;;;12.90;94.20;;;11.70;87.92;101424.53;5047564;28;20044;-84
2021/05/28 07:13:37;;;;;;;27.60;15.70;;;13.10;94.00;;;11.82;87.64;101421.47;5042236;28;20045;-84
2021/05/28 07:16:13;;;;;;;31.00;16.35;;;13.20;93.80;;;11.86;87.41;101428.28;5045414;28;20040;-84
2021/05/28 07:18:51;;;;;;;34.63;15.80;;;13.20;93.30;;;11.88;87.03;101424.38;5037132;28;20046;-84
2021/05/28 07:21:27;;;;;;;29.85;16.08;;;13.20;92.80;;;11.88;86.00;101434.41;5033768;28;20405;-84
2021/05/28 07:24:02;;;;;;;32.70;17.48;;;13.20;92.40;;;11.90;86.23;101433.28;5033925;28;20040;-84
2021/05/28 07:26:43;;;;;;;32.85;18.27;;;13.20;92.30;;;11.95;86.37;101426.44;5028772;28;20052;-84
2021/05/28 07:29:19;;;;;;;34.72;17.27;;;13.20;92.50;;;12.00;86.53;101449.47;5027775;28;20053;-87
2021/05/28 07:31:57;;;;;;;35.95;18.63;;;13.30;93.00;;;11.99;86.31;101445.03;5034601;28;20119;-87
2021/05/28 07:34:29;;;;;;;33.15;19.73;;;13.30;92.40;;;12.00;86.10;101445.91;5032411;28;20441;-89
2021/05/28 07:37:05;;;;;;;35.20;18.60;;;13.30;92.10;;;11.98;85.65;101443.34;5032499;28;20046;-88
2021/05/28 07:39:57;;;;;;;26.15;17.05;;;13.20;91.70;;;11.99;85.32;101444.19;5032365;28;20049;-88
2021/05/28 07:42:36;;;;;;;33.42;18.58;;;13.20;91.80;;;11.93;84.34;101445.72;5031525;28;20060;-89
2021/05/28 07:45:16;;;;;;;31.08;18.67;;;13.30;91.10;;;11.92;84.58;101442.13;5014499;28;20080;-91
2021/05/28 07:47:52;;;;;;;35.70;19.73;;;13.10;91.10;;;11.92;84.16;101444.03;5014836;28;20072;-92
2021/05/28 07:50:44;;;;;;;35.40;20.95;;;13.10;90.80;;;11.93;84.02;101440.25;5013754;28;20053;-91
2021/05/28 07:53:27;;;;;;;33.88;20.17;;;13.10;90.50;;;11.94;83.56;101441.97;5032389;28;20493;-89
2021/05/28 07:56:05;;;;;;;38.17;20.65;;;13.10;90.40;;;11.95;83.10;101448.28;5051656;28;20098;-88
2021/05/28 07:58:39;;;;;;;39.15;21.52;;;13.10;89.70;;;11.97;82.61;101448.97;5051799;28;20079;-88
2021/05/28 08:01:15;;;;;;;43.85;22.35;;;13.10;89.40;;;12.00;82.94;101449.47;5051875;28;20045;-90
2021/05/28 08:03:53;;;;;;;45.00;22.60;;;13.10;90.00;;;12.01;83.53;101437.50;5052022;28;20475;-90
2021/05/28 08:06:29;;;;;;;44.88;22.92;;;13.10;90.60;;;11.99;83.16;101450.47;4967017;28;20053;-86
2021/05/28 08:09:07;;;;;;;47.08;23.38;;;13.10;90.50;;;11.93;82.81;101449.28;5032364;28;20049;-91
2021/05/28 08:11:45;;;;;;;46.63;23.55;;;13.00;90.10;;;11.92;83.27;101454.94;5047038;28;20037;-92
2021/05/28 08:14:35;;;;;;;51.40;26.80;;;13.10;90.40;;;11.92;82.70;101454.94;5032090;28;20136;-89
2021/05/28 08:17:13;;;;;;;58.15;27.77;;;13.10;90.00;;;11.96;83.04;101458.19;5031340;28;20049;-90
2021/05/28 08:19:49;;;;;;;63.47;30.13;;;13.10;90.10;;;11.98;82.63;101454.25;5032027;28;20103;-80
2021/05/28 08:22:27;;;;;;;62.00;28.48;;;13.10;89.60;;;12.03;82.06;101457.31;5014311;28;20119;-88
2021/05/28 08:25:06;;;;;;;66.45;28.98;;;13.10;89.20;;;12.05;82.41;101460.72;5037529;28;20041;-86
2021/05/28 08:27:39;;;;;;;60.42;29.77;;;13.10;89.70;;;12.05;81.86;101460.72;5033584;28;20060;-84
2021/05/28 08:30:16;;;;;;;65.35;31.10;;;13.10;88.90;;;12.09;82.72;101456.63;5049677;28;20051;-86
2021/05/28 08:32:55;;;;;;;68.30;30.65;;;13.20;89.50;;;12.16;82.44;101456.78;5016500;28;20154;-85
2021/05/28 08:35:30;;;;;;;69.65;32.13;;;13.30;89.20;;;12.20;82.09;101458.13;5045515;28;20049;-86
2021/05/28 08:38:14;;;;;;;67.10;30.95;;;13.30;89.60;;;12.23;82.20;101455.06;5046827;28;20071;-86
2021/05/28 08:40:52;;;;;;;69.65;30.85;;;13.40;89.30;;;12.28;82.05;101457.28;5050229;28;20484;-86
2021/05/28 08:43:27;;;;;;;72.07;32.70;;;13.50;89.20;;;12.32;82.26;101461.38;5047523;28;20068;-87
2021/05/28 08:46:07;;;;;;;67.10;30.83;;;13.60;89.50;;;12.32;81.64;101453.19;5031172;28;20574;-86
2021/05/28 08:48:45;;;;;;;74.07;32.33;;;13.60;88.90;;;12.37;83.74;101448.06;5048259;28;20417;-86
2021/05/28 08:51:21;;;;;;;71.28;32.92;;;13.70;89.40;;;12.47;84.39;101459.66;5047040;28;20044;-86
2021/05/28 08:53:58;;;;;;;75.65;34.03;;;13.80;90.20;;;12.50;82.73;101453.81;5048399;28;20049;-88
2021/05/28 08:56:38;;;;;;;72.07;33.30;;;13.80;88.60;;;12.54;83.79;101451.59;5050219;28;20052;-90
2021/05/28 08:59:16;;;;;;;71.57;33.55;;;13.90;89.00;;;12.59;82.50;101456.56;5029294;28;20915;-92
2021/05/28 09:01:57;;;;;;;79.30;33.72;;;13.90;88.00;;;12.68;85.82;101450.91;5043920;28;20488;-88
2021/05/28 09:04:32;;;;;;;74.57;32.05;;;14.00;90.10;;;12.71;84.87;101444.22;5032736;28;20619;-88
2021/05/28 09:07:10;;;;;;;72.07;32.10;;;14.10;90.00;;;12.79;85.21;101446.06;5042276;28;20505;-88
2021/05/28 09:09:48;;;;;;;73.55;34.58;;;14.10;90.00;;;12.75;82.53;101440.09;5048083;28;20094;-88
2021/05/28 09:12:34;;;;;;;70.72;32.70;;;14.10;88.30;;;12.83;83.46;101447.41;5047952;28;20052;-89
2021/05/28 09:15:20;;;;;;;79.53;32.88;;;14.20;89.20;;;12.83;81.68;101448.28;5048377;28;20512;-88
2021/05/28 09:17:58;;;;;;;73.88;32.25;;;14.20;87.20;;;12.87;81.34;101441.44;5030880;28;20077;-89
2021/05/28 09:20:37;;;;;;;68.95;32.13;;;14.20;87.70;;;12.90;81.47;101434.75;5045823;28;20042;-89
2021/05/28 09:23:15;;;;;;;66.47;32.08;;;14.30;86.80;;;12.90;80.94;101441.06;5041968;28;20075;-89
2021/05/28 09:26:06;;;;;;;74.78;33.15;;;14.30;87.10;;;12.94;80.82;101440.72;5044611;28;20405;-88
2021/05/28 09:28:54;;;;;;;70.77;32.33;;;14.30;87.30;;;12.99;80.98;101441.88;5046655;28;20045;-88
2021/05/28 09:31:28;;;;;;;71.35;32.10;;;14.30;86.30;;;13.00;80.15;101434.53;5043072;28;20794;-88
2021/05/28 09:34:09;;;;;;;66.97;31.50;;;14.40;86.10;;;13.03;79.20;101439.66;5030613;28;20056;-89
2021/05/28 09:36:45;;;;;;;64.03;28.50;;;14.40;86.00;;;13.10;79.35;101437.91;5049791;28;20037;-89
2021/05/28 09:39:23;;;;;;;65.53;29.45;;;14.50;85.80;;;13.19;80.34;101435.97;5049774;28;20045;-89
2021/05/28 09:42:02;;;;;;;70.35;30.08;;;14.60;86.10;;;13.33;82.58;101437.13;5049595;28;20717;-90
2021/05/28 09:44:39;;;;;;;64.78;30.60;;;14.70;88.10;;;13.30;79.98;101430.97;5049843;28;20464;-89
2021/05/28 09:47:18;;;;;;;64.72;28.15;;;14.70;85.80;;;13.33;80.20;101424.31;5049474;28;20048;-89
2021/05/28 09:49:56;;;;;;;50.65;24.17;;;14.80;85.90;;;13.36;77.78;101439.50;5054682;22;20123;-77
2021/05/28 09:52:32;;;;;;;47.95;22.52;;;14.80;85.00;;;13.37;76.03;101441.22;5068996;28;20558;-78
2021/05/28 09:55:08;;;;;;;57.20;27.33;;;14.80;82.70;;;13.38;77.19;101424.63;5069227;28;20052;-78
2021/05/28 09:57:45;;;;;;;54.13;26.05;;;14.90;83.20;;;13.40;78.01;101421.69;5064543;28;20079;-78
2021/05/28 10:00:32;;;;;;;54.75;26.85;;;14.90;83.30;;;13.49;78.96;101421.47;5056854;28;20049;-78
2021/05/28 10:03:24;;;;;;;41.58;19.63;;;15.00;84.40;;;13.54;77.38;101418.19;5048847;28;20045;-77
2021/05/28 10:06:04;;;;;;;37.72;19.33;;;15.00;83.00;;;13.55;73.96;101425.34;5049143;28;20049;-77
2021/05/28 10:08:42;;;;;;;37.78;19.30;;;15.00;80.10;;;13.53;74.59;101421.94;5048886;28;20044;-78
2021/05/28 10:11:15;;;;;;;46.22;21.85;;;15.00;80.60;;;13.51;72.72;101421.28;5048907;28;20041;-77
2021/05/28 10:13:54;;;;;;;38.63;20.98;;;15.00;79.90;;;13.53;72.96;101421.94;5049622;28;20067;-78
2021/05/28 10:16:33;;;;;;;36.55;18.90;;;14.90;79.10;;;13.57;72.60;101417.81;5048971;28;20465;-78
2021/05/28 10:19:52;;;;;;;30.85;15.77;;;15.00;79.10;;;13.61;72.43;101421.91;5029243;28;20049;-78
2021/05/28 10:22:31;;;;;;;29.17;13.98;;;15.10;80.40;;;13.60;69.95;101420.19;5029283;28;20436;-78
2021/05/28 10:25:11;;;;;;;29.92;14.95;;;15.10;76.40;;;13.60;71.30;101420.19;5037188;28;20053;-78
2021/05/28 10:27:51;;;;;;;31.30;16.08;;;15.10;77.90;;;13.61;71.03;101405.50;5048934;28;20095;-78
2021/05/28 10:30:33;;;;;;;23.15;11.48;;;15.10;78.20;;;13.58;68.14;101413.22;5048266;28;20037;-78
2021/05/28 10:33:30;;;;;;;26.25;11.55;;;15.10;76.60;;;13.64;69.36;101410.59;5049102;28;20778;-77
2021/05/28 10:36:11;;;;;;;23.45;11.90;;;15.10;76.70;;;13.66;68.70;101411.25;5048690;28;20068;-77
2021/05/28 10:38:47;;;;;;;;;;;15.10;75.40;;;13.72;70.64;101409.66;5049204;28;20056;-77
2021/05/28 10:41:46;;;;;;;29.35;12.98;;;15.10;77.30;;;13.71;69.27;101407.13;5048481;28;19924;-79
2021/05/28 10:44:41;;;;;;;24.77;12.27;;;15.20;76.00;;;13.71;68.14;101402.50;5029104;28;20476;-78
2021/05/28 10:47:40;;;;;;;26.42;11.48;;;15.20;75.40;;;13.77;69.16;101403.66;5041216;28;20045;-78
2021/05/28 10:50:20;;;;;;;22.05;11.45;;;15.20;75.80;;;13.81;69.35;101399.53;5048402;28;20049;-78
2021/05/28 10:53:11;;;;;;;23.25;10.85;;;15.30;76.60;;;13.86;68.11;101399.84;5048368;28;20067;-78